Time;durP1;ratioP1;P1;durP2;ratioP2;P2;SDS_P1;SDS_P2;PMS_P1;PMS_P2;Temp;Humidity;BMP_temperature;BMP_pressure;BME280_temperature;BME280_humidity;BME280_pressure;Samples;Min_cycle;Max_cycle;Signal;HPM_P1;HPM_P2
2022/06/12 00:01:19;;;;;;;2.50;1.00;;;;;;;;;;5095825;28;20040;-67
2022/06/12 00:03:46;;;;;;;1.50;1.00;;;;;;;;;;5095785;28;20474;-67
2022/06/12 00:06:14;;;;;;;3.72;1.10;;;;;;;;;;5095235;28;20115;-67
2022/06/12 00:08:40;;;;;;;1.25;0.90;;;;;;;;;;5095403;28;20432;-67
2022/06/12 00:11:08;;;;;;;1.67;1.00;;;;;;;;;;5095649;28;20111;-67
2022/06/12 00:13:39;;;;;;;2.17;1.17;;;;;;;;;;5095586;28;20040;-67
2022/06/12 00:16:06;;;;;;;3.33;1.08;;;;;;;;;;5095624;28;20115;-67
2022/06/12 00:18:33;;;;;;;1.08;0.90;;;;;;;;;;5095459;28;20086;-67
2022/06/12 00:21:11;;;;;;;1.88;0.80;;;;;;;;;;5094266;28;20513;-67
2022/06/12 00:23:48;;;;;;;1.75;0.90;;;;;;;;;;5095057;28;20044;-67
2022/06/12 00:26:16;;;;;;;1.60;0.85;;;;;;;;;;5095626;28;20036;-67
2022/06/12 00:28:43;;;;;;;2.05;0.98;;;;;;;;;;5095577;28;20542;-67
2022/06/12 00:31:09;;;;;;;2.25;0.88;;;;;;;;;;5095488;28;20050;-67
2022/06/12 00:33:35;;;;;;;3.58;1.27;;;;;;;;;;5094960;28;20040;-67
2022/06/12 00:36:02;;;;;;;3.03;1.42;;;;;;;;;;5095125;28;20036;-67
2022/06/12 00:38:28;;;;;;;2.40;1.00;;;;;;;;;;5095070;28;20089;-67
2022/06/12 00:40:54;;;;;;;4.05;1.05;;;;;;;;;;5095408;28;20028;-67
2022/06/12 00:43:21;;;;;;;2.03;1.20;;;;;;;;;;5094960;28;20032;-67
2022/06/12 00:45:59;;;;;;;1.67;1.10;;;;;;;;;;5095035;28;20028;-67
2022/06/12 00:48:44;;;;;;;2.90;0.95;;;;;;;;;;5095180;28;20056;-67
2022/06/12 00:51:19;;;;;;;1.67;1.20;;;;;;;;;;5094527;28;20032;-67
2022/06/12 00:53:54;;;;;;;2.13;1.15;;;;;;;;;;5094530;28;20554;-67
2022/06/12 00:56:23;;;;;;;2.35;1.25;;;;;;;;;;5094998;28;20055;-67
2022/06/12 00:58:51;;;;;;;1.10;0.88;;;;;;;;;;5095136;28;20039;-67
2022/06/12 01:01:26;;;;;;;1.27;1.00;;;;;;;;;;5094879;28;20032;-67
2022/06/12 01:06:37;;;;;;;2.13;1.08;;;;;;;;;;5094421;28;20108;-67
2022/06/12 01:09:12;;;;;;;3.90;1.20;;;;;;;;;;5095077;28;20039;-67
2022/06/12 01:11:40;;;;;;;4.03;1.00;;;;;;;;;;5095032;28;20486;-67
2022/06/12 01:14:08;;;;;;;1.70;1.10;;;;;;;;;;5095018;28;20074;-67
2022/06/12 01:16:38;;;;;;;2.58;1.13;;;;;;;;;;5094758;28;20360;-67
2022/06/12 01:19:06;;;;;;;1.60;1.05;;;;;;;;;;5095014;28;20047;-67
2022/06/12 01:21:33;;;;;;;1.85;1.10;;;;;;;;;;5095062;28;20066;-67
2022/06/12 01:24:18;;;;;;;1.08;0.98;;;;;;;;;;5094832;28;20052;-67
2022/06/12 01:26:59;;;;;;;4.00;1.00;;;;;;;;;;5094674;28;20032;-67
2022/06/12 01:29:30;;;;;;;2.10;1.10;;;;;;;;;;5094787;28;20039;-67
2022/06/12 01:32:04;;;;;;;1.10;1.00;;;;;;;;;;5097053;28;20035;-67
2022/06/12 01:34:48;;;;;;;0.80;0.80;;;;;;;;;;5098782;28;20036;-67
2022/06/12 01:37:21;;;;;;;2.47;1.05;;;;;;;;;;5098894;28;20543;-67
2022/06/12 01:40:04;;;;;;;4.43;1.02;;;;;;;;;;5098469;28;20115;-67
2022/06/12 01:42:37;;;;;;;1.88;1.10;;;;;;;;;;5098582;28;20051;-67
2022/06/12 01:45:03;;;;;;;2.65;1.00;;;;;;;;;;5098856;28;20044;-67
2022/06/12 01:47:29;;;;;;;0.82;0.80;;;;;;;;;;5098796;28;20036;-67
2022/06/12 01:50:07;;;;;;;1.63;1.00;;;;;;;;;;5098226;28;20040;-67
2022/06/12 01:52:45;;;;;;;3.22;0.80;;;;;;;;;;5099468;28;20482;-67
2022/06/12 01:55:14;;;;;;;1.45;1.00;;;;;;;;;;5099206;28;20039;-67
2022/06/12 01:57:43;;;;;;;1.42;0.95;;;;;;;;;;5098339;28;20489;-67
2022/06/12 02:00:10;;;;;;;2.25;1.00;;;;;;;;;;5097778;28;20434;-67
2022/06/12 02:02:45;;;;;;;4.82;1.00;;;;;;;;;;5098833;28;20115;-67
2022/06/12 02:05:23;;;;;;;1.10;1.00;;;;;;;;;;5098272;28;20047;-67
2022/06/12 02:07:55;;;;;;;1.42;1.00;;;;;;;;;;5098754;28;20032;-67
2022/06/12 02:10:27;;;;;;;1.52;0.95;;;;;;;;;;5097742;28;20130;-67
2022/06/12 02:13:13;;;;;;;4.00;1.10;;;;;;;;;;5097805;28;20047;-67
2022/06/12 02:15:39;;;;;;;3.35;1.20;;;;;;;;;;5097491;28;20062;-67
2022/06/12 02:18:29;;;;;;;2.17;1.00;;;;;;;;;;5097965;28;20128;-67
2022/06/12 02:21:08;;;;;;;2.25;0.93;;;;;;;;;;5089070;28;20181;-67
2022/06/12 02:23:47;;;;;;;1.13;1.00;;;;;;;;;;5097100;28;20035;-67
2022/06/12 02:26:18;;;;;;;1.27;1.10;;;;;;;;;;5098298;28;20047;-67
2022/06/12 02:28:44;;;;;;;;;;;;;;;;;;5097910;28;20490;-67
2022/06/12 02:31:18;;;;;;;2.90;1.10;;;;;;;;;;5097279;28;19911;-67
2022/06/12 02:33:46;;;;;;;2.00;0.90;;;;;;;;;;5097251;28;20043;-67
2022/06/12 02:36:25;;;;;;;2.53;1.13;;;;;;;;;;5097589;28;20044;-67
2022/06/12 02:38:57;;;;;;;2.97;1.00;;;;;;;;;;5097052;28;20394;-67
2022/06/12 02:41:26;;;;;;;3.13;1.00;;;;;;;;;;5097317;28;20044;-67
2022/06/12 02:43:55;;;;;;;1.00;0.90;;;;;;;;;;5096316;28;20024;-67
2022/06/12 02:46:30;;;;;;;2.05;0.93;;;;;;;;;;5097355;28;20044;-67
2022/06/12 02:48:56;;;;;;;3.53;0.98;;;;;;;;;;5097366;28;20063;-67
2022/06/12 02:51:28;;;;;;;1.63;1.20;;;;;;;;;;5096730;28;20066;-67
2022/06/12 02:53:58;;;;;;;1.40;0.90;;;;;;;;;;5097066;28;20032;-67
2022/06/12 02:56:34;;;;;;;1.25;0.82;;;;;;;;;;5096808;28;20042;-67
2022/06/12 02:59:09;;;;;;;1.58;1.02;;;;;;;;;;5097174;28;20424;-67
2022/06/12 03:01:42;;;;;;;1.60;1.00;;;;;;;;;;5097282;28;20047;-67
2022/06/12 03:04:12;;;;;;;1.73;1.05;;;;;;;;;;5096706;28;20489;-67
2022/06/12 03:06:40;;;;;;;0.80;0.80;;;;;;;;;;5097175;28;20032;-67
2022/06/12 03:09:07;;;;;;;1.63;0.90;;;;;;;;;;5096863;28;20032;-67
2022/06/12 03:11:36;;;;;;;1.30;1.10;;;;;;;;;;5097145;28;20052;-67
2022/06/12 03:14:04;;;;;;;1.38;1.00;;;;;;;;;;5671018;22;20050;-75
2022/06/12 03:16:32;;;;;;;1.35;1.00;;;;;;;;;;5076677;28;20033;-75
2022/06/12 03:19:08;;;;;;;1.10;0.85;;;;;;;;;;5076894;28;20090;-75
2022/06/12 03:21:47;;;;;;;1.70;1.02;;;;;;;;;;5076589;28;20044;-75
2022/06/12 03:24:16;;;;;;;3.30;1.10;;;;;;;;;;5076237;28;20037;-75
2022/06/12 03:26:47;;;;;;;2.47;0.90;;;;;;;;;;5076503;28;20032;-75
2022/06/12 03:29:13;;;;;;;2.42;1.05;;;;;;;;;;5076021;28;20044;-75
2022/06/12 03:32:12;;;;;;;1.38;1.00;;;;;;;;;;5076321;28;20032;-75
2022/06/12 03:34:41;;;;;;;1.38;1.02;;;;;;;;;;5053026;28;20059;-75
2022/06/12 03:37:11;;;;;;;1.35;0.80;;;;;;;;;;5076347;28;20047;-76
2022/06/12 03:39:46;;;;;;;2.75;1.08;;;;;;;;;;5075886;28;20052;-75
2022/06/12 03:42:12;;;;;;;1.50;1.08;;;;;;;;;;5076440;28;20036;-76
2022/06/12 03:44:38;;;;;;;3.20;1.30;;;;;;;;;;5075651;28;20037;-76
2022/06/12 03:47:17;;;;;;;1.63;1.00;;;;;;;;;;5075398;28;20037;-75
2022/06/12 03:49:49;;;;;;;3.33;1.15;;;;;;;;;;5075937;28;20040;-76
2022/06/12 03:52:23;;;;;;;1.25;1.00;;;;;;;;;;5075324;28;20032;-75
2022/06/12 03:54:56;;;;;;;4.90;1.30;;;;;;;;;;5076009;28;20394;-76
2022/06/12 04:00:17;;;;;;;3.80;1.30;;;;;;;;;;5558461;22;20060;-75
2022/06/12 04:02:48;;;;;;;1.30;0.90;;;;;;;;;;5095436;28;20039;-75
2022/06/12 04:05:14;;;;;;;;;;;;;;;;;;5096854;28;20047;-75
2022/06/12 04:07:44;;;;;;;4.38;1.10;;;;;;;;;;5095643;28;20326;-75
2022/06/12 04:10:14;;;;;;;3.35;1.02;;;;;;;;;;5095765;28;20040;-76
2022/06/12 04:12:40;;;;;;;1.75;0.90;;;;;;;;;;5095595;28;20063;-75
2022/06/12 04:15:12;;;;;;;2.25;1.00;;;;;;;;;;5095282;28;20100;-76
2022/06/12 04:17:39;;;;;;;0.93;0.88;;;;;;;;;;5095161;28;20032;-75
2022/06/12 04:20:06;;;;;;;3.17;1.17;;;;;;;;;;5095052;28;20569;-75
2022/06/12 04:22:32;;;;;;;1.13;0.90;;;;;;;;;;5095038;28;20119;-75
2022/06/12 04:25:02;;;;;;;4.07;1.00;;;;;;;;;;5094985;28;20040;-75
2022/06/12 04:30:15;;;;;;;1.20;1.10;;;;;;;;;;5393381;22;20068;-75
2022/06/12 04:32:41;;;;;;;2.88;0.90;;;;;;;;;;5074341;28;20500;-75
2022/06/12 04:35:08;;;;;;;1.77;1.20;;;;;;;;;;5074513;28;20040;-75
2022/06/12 04:37:34;;;;;;;3.63;1.10;;;;;;;;;;5074744;28;20074;-75
2022/06/12 04:40:01;;;;;;;1.30;1.10;;;;;;;;;;5074950;28;20044;-75
2022/06/12 04:42:30;;;;;;;3.15;1.10;;;;;;;;;;5074482;28;20032;-75
2022/06/12 04:45:00;;;;;;;2.70;1.65;;;;;;;;;;5074273;28;20115;-75
2022/06/12 04:47:28;;;;;;;3.60;1.35;;;;;;;;;;5075031;28;20061;-76
2022/06/12 04:49:54;;;;;;;1.55;1.20;;;;;;;;;;5074804;28;20375;-76
2022/06/12 04:52:21;;;;;;;3.08;1.58;;;;;;;;;;5074333;28;20032;-75
2022/06/12 04:54:48;;;;;;;1.60;1.20;;;;;;;;;;5074550;28;20090;-75
2022/06/12 04:57:16;;;;;;;3.58;1.20;;;;;;;;;;5074663;28;20044;-75
2022/06/12 04:59:43;;;;;;;2.42;0.98;;;;;;;;;;5073758;28;20059;-75
2022/06/12 05:02:09;;;;;;;3.35;1.20;;;;;;;;;;5074315;28;20047;-75
2022/06/12 05:04:36;;;;;;;1.27;0.90;;;;;;;;;;5074488;28;20037;-75
2022/06/12 05:07:02;;;;;;;3.22;1.10;;;;;;;;;;5074014;28;20040;-75
2022/06/12 05:09:31;;;;;;;1.00;0.93;;;;;;;;;;5074398;28;20048;-75
2022/06/12 05:11:57;;;;;;;1.95;1.00;;;;;;;;;;5074233;28;20040;-75
2022/06/12 05:14:24;;;;;;;1.23;1.13;;;;;;;;;;5074334;28;20063;-75
2022/06/12 05:16:58;;;;;;;0.82;0.80;;;;;;;;;;5074138;28;20041;-75
2022/06/12 05:19:25;;;;;;;1.10;0.90;;;;;;;;;;5074518;28;20060;-75
2022/06/12 05:21:52;;;;;;;4.57;1.13;;;;;;;;;;5074956;28;20051;-75
2022/06/12 05:24:18;;;;;;;1.48;1.00;;;;;;;;;;5074355;28;20123;-75
2022/06/12 05:26:46;;;;;;;0.88;0.88;;;;;;;;;;5074344;28;20556;-75
2022/06/12 05:29:15;;;;;;;1.75;0.80;;;;;;;;;;5074541;28;20058;-75
2022/06/12 05:31:41;;;;;;;1.35;1.00;;;;;;;;;;5074872;28;20036;-75
2022/06/12 05:34:08;;;;;;;3.42;1.13;;;;;;;;;;5074469;28;20041;-76
2022/06/12 05:36:36;;;;;;;3.63;0.77;;;;;;;;;;5074592;28;20059;-76
2022/06/12 05:39:02;;;;;;;1.08;0.77;;;;;;;;;;5074368;28;20074;-76
2022/06/12 05:41:28;;;;;;;0.85;0.80;;;;;;;;;;5074769;28;20047;-76
2022/06/12 05:43:55;;;;;;;2.15;0.90;;;;;;;;;;5074292;28;20513;-75
2022/06/12 05:46:21;;;;;;;0.98;0.88;;;;;;;;;;5074453;28;20040;-75
2022/06/12 05:48:47;;;;;;;2.50;1.25;;;;;;;;;;5074755;28;20070;-76
2022/06/12 05:51:14;;;;;;;2.40;1.10;;;;;;;;;;5074384;28;20482;-75
2022/06/12 05:53:41;;;;;;;1.35;1.08;;;;;;;;;;5074375;28;20052;-76
2022/06/12 05:56:09;;;;;;;2.10;0.80;;;;;;;;;;5074636;28;20055;-76
2022/06/12 05:58:36;;;;;;;1.25;0.95;;;;;;;;;;5074258;28;20055;-76
2022/06/12 06:01:03;;;;;;;2.85;0.90;;;;;;;;;;5074233;28;20094;-76
2022/06/12 06:03:29;;;;;;;1.48;0.68;;;;;;;;;;5074266;28;20045;-76
2022/06/12 06:05:55;;;;;;;2.08;1.08;;;;;;;;;;5074253;28;20087;-76
2022/06/12 06:08:22;;;;;;;1.00;0.80;;;;;;;;;;5074535;28;20048;-76
2022/06/12 06:10:48;;;;;;;0.90;0.80;;;;;;;;;;5074768;28;20044;-76
2022/06/12 06:13:14;;;;;;;1.10;0.90;;;;;;;;;;5074331;28;20047;-75
2022/06/12 06:15:40;;;;;;;1.02;0.70;;;;;;;;;;5074166;28;20478;-76
2022/06/12 06:18:07;;;;;;;2.15;1.02;;;;;;;;;;5075214;28;20050;-76
2022/06/12 06:20:35;;;;;;;2.17;1.00;;;;;;;;;;5077674;28;20044;-75
2022/06/12 06:23:01;;;;;;;1.05;0.90;;;;;;;;;;5078002;28;20051;-74
2022/06/12 06:25:28;;;;;;;1.70;0.85;;;;;;;;;;5077351;28;20035;-75
2022/06/12 06:27:54;;;;;;;3.88;0.90;;;;;;;;;;5078226;28;20040;-75
2022/06/12 06:30:22;;;;;;;2.00;1.10;;;;;;;;;;5076788;28;20048;-76
2022/06/12 06:32:48;;;;;;;1.67;0.70;;;;;;;;;;5077184;28;20028;-75
2022/06/12 06:35:14;;;;;;;1.92;1.00;;;;;;;;;;5077201;28;20040;-76
2022/06/12 06:37:40;;;;;;;1.58;1.02;;;;;;;;;;5077190;28;20499;-76
2022/06/12 06:40:08;;;;;;;2.33;0.98;;;;;;;;;;5077246;28;20131;-76
2022/06/12 06:42:35;;;;;;;2.80;1.00;;;;;;;;;;5075071;28;20045;-76
2022/06/12 06:47:46;;;;;;;0.90;0.90;;;;;;;;;;5064842;28;20106;-76
2022/06/12 06:50:13;;;;;;;1.58;1.20;;;;;;;;;;5077118;28;20557;-75
2022/06/12 06:52:40;;;;;;;1.30;1.20;;;;;;;;;;5075024;28;20529;-76
2022/06/12 06:55:07;;;;;;;3.03;1.40;;;;;;;;;;5064964;28;20461;-74
2022/06/12 06:57:35;;;;;;;3.08;1.67;;;;;;;;;;5073426;28;20033;-75
2022/06/12 07:00:02;;;;;;;1.98;1.42;;;;;;;;;;5075949;28;20049;-74
2022/06/12 07:02:28;;;;;;;5.43;1.85;;;;;;;;;;5075074;28;20050;-75
2022/06/12 07:04:54;;;;;;;2.78;1.50;;;;;;;;;;5065606;28;20044;-76
2022/06/12 07:07:20;;;;;;;1.90;1.55;;;;;;;;;;5076317;28;20043;-76
2022/06/12 07:09:47;;;;;;;2.00;1.38;;;;;;;;;;5076383;28;20047;-76
2022/06/12 07:12:13;;;;;;;4.47;1.85;;;;;;;;;;5065156;28;20039;-76
2022/06/12 07:14:39;;;;;;;3.20;1.77;;;;;;;;;;5056053;28;20123;-76
2022/06/12 07:17:05;;;;;;;4.80;1.60;;;;;;;;;;5056437;28;20044;-76
2022/06/12 07:19:33;;;;;;;4.05;1.60;;;;;;;;;;5056028;28;20059;-76
2022/06/12 07:21:59;;;;;;;3.00;2.03;;;;;;;;;;5072029;28;20101;-76
2022/06/12 07:24:25;;;;;;;1.98;1.67;;;;;;;;;;5067911;28;20036;-76
2022/06/12 07:26:52;;;;;;;2.92;1.70;;;;;;;;;;5068081;28;20041;-75
2022/06/12 07:29:21;;;;;;;4.85;1.80;;;;;;;;;;5069387;28;20052;-75
2022/06/12 07:31:47;;;;;;;2.90;1.80;;;;;;;;;;5063247;28;20035;-75
2022/06/12 07:34:14;;;;;;;3.25;1.98;;;;;;;;;;5066687;28;20036;-75
2022/06/12 07:36:41;;;;;;;2.65;2.10;;;;;;;;;;5060976;28;20037;-75
2022/06/12 07:39:08;;;;;;;3.17;2.10;;;;;;;;;;5058083;28;20053;-76
2022/06/12 07:41:34;;;;;;;3.78;1.92;;;;;;;;;;5076326;28;20479;-76
2022/06/12 07:44:01;;;;;;;2.55;1.88;;;;;;;;;;5070403;28;20495;-76
2022/06/12 07:46:27;;;;;;;3.20;1.80;;;;;;;;;;5069184;28;20045;-75
2022/06/12 07:48:53;;;;;;;3.42;1.88;;;;;;;;;;5074428;28;20056;-76
2022/06/12 07:51:21;;;;;;;4.20;2.28;;;;;;;;;;5071237;28;20129;-75
2022/06/12 07:53:48;;;;;;;3.13;1.83;;;;;;;;;;5071210;28;20040;-76
2022/06/12 07:56:15;;;;;;;4.75;2.40;;;;;;;;;;5061257;28;20102;-76
2022/06/12 07:58:41;;;;;;;3.65;1.77;;;;;;;;;;5061852;28;20040;-75
2022/06/12 08:01:08;;;;;;;2.70;1.80;;;;;;;;;;5063240;28;20032;-76
2022/06/12 08:03:34;;;;;;;4.10;1.67;;;;;;;;;;5067943;28;20037;-75
2022/06/12 08:06:01;;;;;;;1.95;1.50;;;;;;;;;;5057270;28;20047;-76
2022/06/12 08:08:28;;;;;;;2.92;2.08;;;;;;;;;;5060762;28;20041;-76
2022/06/12 08:10:55;;;;;;;2.75;1.77;;;;;;;;;;5060505;28;20041;-77
2022/06/12 08:13:23;;;;;;;3.75;1.80;;;;;;;;;;5074442;28;20036;-76
2022/06/12 08:15:50;;;;;;;2.70;1.52;;;;;;;;;;5071215;28;20044;-75
2022/06/12 08:18:17;;;;;;;2.50;1.58;;;;;;;;;;5062972;28;20037;-76
2022/06/12 08:20:45;;;;;;;1.75;1.30;;;;;;;;;;5068309;28;20098;-75
2022/06/12 08:23:26;;;;;;;3.15;1.52;;;;;;;;;;5074582;28;20036;-74
2022/06/12 08:25:56;;;;;;;2.47;1.63;;;;;;;;;;5061175;28;20044;-76
2022/06/12 08:28:23;;;;;;;2.35;1.55;;;;;;;;;;5071621;28;20507;-75
2022/06/12 08:30:49;;;;;;;3.05;1.63;;;;;;;;;;5067285;28;20536;-75
2022/06/12 08:33:15;;;;;;;2.55;1.98;;;;;;;;;;5064844;28;20037;-76
2022/06/12 08:35:44;;;;;;;3.90;1.42;;;;;;;;;;5066388;28;20051;-77
2022/06/12 08:38:12;;;;;;;1.48;1.30;;;;;;;;;;5065551;28;20040;-75
2022/06/12 08:40:49;;;;;;;3.08;1.60;;;;;;;;;;5062782;28;20383;-75
2022/06/12 08:43:26;;;;;;;2.33;1.52;;;;;;;;;;5056908;28;20511;-76
2022/06/12 08:45:53;;;;;;;4.30;1.20;;;;;;;;;;5057849;28;20055;-75
2022/06/12 08:48:45;;;;;;;2.63;1.30;;;;;;;;;;5059101;28;20133;-74
2022/06/12 08:51:12;;;;;;;2.47;1.30;;;;;;;;;;5036881;28;20040;-74
2022/06/12 08:53:47;;;;;;;1.92;1.40;;;;;;;;;;5058900;28;20043;-75
2022/06/12 08:56:16;;;;;;;1.75;1.20;;;;;;;;;;5068366;28;20041;-76
2022/06/12 08:58:52;;;;;;;5.80;1.23;;;;;;;;;;5055383;28;20411;-74
2022/06/12 09:01:20;;;;;;;1.63;1.30;;;;;;;;;;5055234;28;20736;-77
2022/06/12 09:03:51;;;;;;;5.55;1.25;;;;;;;;;;5052530;28;20037;-76
2022/06/12 09:06:24;;;;;;;1.67;1.10;;;;;;;;;;5056190;28;20091;-78
2022/06/12 09:09:08;;;;;;;2.53;1.52;;;;;;;;;;5062854;28;20093;-77
2022/06/12 09:11:46;;;;;;;2.67;1.25;;;;;;;;;;5060886;28;20043;-76
2022/06/12 09:14:16;;;;;;;2.72;1.40;;;;;;;;;;5064003;28;20115;-77
2022/06/12 09:17:01;;;;;;;1.85;1.40;;;;;;;;;;5066865;28;20116;-77
2022/06/12 09:19:32;;;;;;;3.88;1.10;;;;;;;;;;5060132;28;20041;-75
2022/06/12 09:22:24;;;;;;;1.75;1.13;;;;;;;;;;5068827;28;20052;-76
2022/06/12 09:24:54;;;;;;;3.05;1.38;;;;;;;;;;5065143;28;20033;-76
2022/06/12 09:27:49;;;;;;;2.80;1.17;;;;;;;;;;5059394;28;20048;-74
2022/06/12 09:30:21;;;;;;;3.05;1.27;;;;;;;;;;5047058;28;20065;-74
2022/06/12 09:32:59;;;;;;;2.70;0.95;;;;;;;;;;5063742;28;20147;-74
2022/06/12 09:35:36;;;;;;;1.30;1.20;;;;;;;;;;5068779;28;20037;-75
2022/06/12 09:38:21;;;;;;;3.25;1.13;;;;;;;;;;5063016;28;20507;-74
2022/06/12 09:40:50;;;;;;;3.75;1.40;;;;;;;;;;5057985;28;20045;-74
2022/06/12 09:43:22;;;;;;;1.70;1.10;;;;;;;;;;5072129;28;20087;-75
2022/06/12 09:45:55;;;;;;;2.72;1.17;;;;;;;;;;5068104;28;20068;-74
2022/06/12 09:48:23;;;;;;;2.50;0.98;;;;;;;;;;5069667;28;20045;-74
2022/06/12 09:50:52;;;;;;;1.02;0.95;;;;;;;;;;5042245;28;20391;-74
2022/06/12 09:53:50;;;;;;;1.98;1.13;;;;;;;;;;5065439;28;20032;-72
2022/06/12 09:56:23;;;;;;;1.52;1.10;;;;;;;;;;5011691;28;20032;-74
2022/06/12 09:58:58;;;;;;;3.25;1.15;;;;;;;;;;5069088;28;20040;-74
2022/06/12 10:01:26;;;;;;;1.52;1.02;;;;;;;;;;5060630;28;20507;-74
2022/06/12 10:03:53;;;;;;;2.63;1.00;;;;;;;;;;5063760;28;20124;-75
2022/06/12 10:06:24;;;;;;;2.55;1.25;;;;;;;;;;5077792;28;20032;-74
2022/06/12 10:08:57;;;;;;;1.30;1.20;;;;;;;;;;5071200;28;20044;-74
2022/06/12 10:11:26;;;;;;;2.13;1.27;;;;;;;;;;5071758;28;20436;-74
2022/06/12 10:14:05;;;;;;;2.20;1.50;;;;;;;;;;5062039;28;20060;-74
2022/06/12 10:16:37;;;;;;;1.38;1.10;;;;;;;;;;5069535;28;20040;-74
2022/06/12 10:19:11;;;;;;;2.03;1.30;;;;;;;;;;5060321;28;20123;-74
2022/06/12 10:21:39;;;;;;;1.80;1.17;;;;;;;;;;5064987;28;20114;-75
2022/06/12 10:24:06;;;;;;;1.00;1.00;;;;;;;;;;5069550;28;20072;-76
2022/06/12 10:26:33;;;;;;;6.63;1.25;;;;;;;;;;5056737;28;20033;-76
2022/06/12 10:29:24;;;;;;;2.88;0.95;;;;;;;;;;5055859;28;20060;-76
2022/06/12 10:31:57;;;;;;;2.83;1.30;;;;;;;;;;5066667;28;20047;-74
2022/06/12 10:34:28;;;;;;;1.80;1.05;;;;;;;;;;5070769;28;20105;-75
2022/06/12 10:36:54;;;;;;;2.00;1.20;;;;;;;;;;5056824;28;20045;-75
2022/06/12 10:39:21;;;;;;;1.80;1.35;;;;;;;;;;5062959;28;20120;-75
2022/06/12 10:41:50;;;;;;;1.67;1.35;;;;;;;;;;5057654;28;20099;-75
2022/06/12 10:44:27;;;;;;;4.50;1.55;;;;;;;;;;5073827;28;20033;-76
2022/06/12 10:46:54;;;;;;;1.95;1.48;;;;;;;;;;5064010;28;20414;-75
2022/06/12 10:49:23;;;;;;;2.65;1.55;;;;;;;;;;5073928;28;20102;-77
2022/06/12 10:51:50;;;;;;;3.70;1.58;;;;;;;;;;5060838;28;20159;-75
2022/06/12 10:54:18;;;;;;;6.88;1.92;;;;;;;;;;5072380;28;20064;-76
2022/06/12 10:57:01;;;;;;;5.30;2.28;;;;;;;;;;5058079;28;20049;-76
2022/06/12 10:59:30;;;;;;;3.22;2.25;;;;;;;;;;5065805;28;20044;-75
2022/06/12 11:01:57;;;;;;;4.82;2.50;;;;;;;;;;5064512;28;20473;-77
2022/06/12 11:04:42;;;;;;;4.75;3.05;;;;;;;;;;5064324;28;20120;-75
2022/06/12 11:07:36;;;;;;;5.40;2.67;;;;;;;;;;5061639;28;20028;-76
2022/06/12 11:10:30;;;;;;;1.90;1.77;;;;;;;;;;5068885;28;20143;-75
2022/06/12 11:13:02;;;;;;;2.45;2.17;;;;;;;;;;5038366;28;20094;-75
2022/06/12 11:15:28;;;;;;;6.45;2.80;;;;;;;;;;5070386;28;20032;-75
2022/06/12 11:18:14;;;;;;;6.07;3.20;;;;;;;;;;5075961;28;20155;-75
2022/06/12 11:20:59;;;;;;;4.57;2.92;;;;;;;;;;5075565;28;20054;-75
2022/06/12 11:23:25;;;;;;;5.63;3.17;;;;;;;;;;5075772;28;20044;-75
2022/06/12 11:25:51;;;;;;;5.32;2.80;;;;;;;;;;5063760;28;20056;-75
2022/06/12 11:28:20;;;;;;;4.55;3.15;;;;;;;;;;5058942;28;20056;-75
2022/06/12 11:31:01;;;;;;;4.68;2.58;;;;;;;;;;5053695;28;20241;-75
2022/06/12 11:33:27;;;;;;;8.50;2.78;;;;;;;;;;5055201;28;20532;-75
2022/06/12 11:35:57;;;;;;;5.38;3.15;;;;;;;;;;5055786;28;20037;-75
2022/06/12 11:38:32;;;;;;;8.20;2.60;;;;;;;;;;5056009;28;20436;-74
2022/06/12 11:40:59;;;;;;;4.95;2.75;;;;;;;;;;5055244;28;20060;-75
2022/06/12 11:43:31;;;;;;;5.07;2.92;;;;;;;;;;5055972;28;20041;-75
2022/06/12 11:46:00;;;;;;;3.47;2.80;;;;;;;;;;5056752;28;20040;-75
2022/06/12 11:48:41;;;;;;;4.93;2.47;;;;;;;;;;5059617;28;20172;-74
2022/06/12 11:51:19;;;;;;;5.80;2.60;;;;;;;;;;5063674;28;20271;-75
2022/06/12 11:53:55;;;;;;;3.35;2.45;;;;;;;;;;5062088;28;20037;-74
2022/06/12 11:56:27;;;;;;;3.45;2.20;;;;;;;;;;5062915;28;20127;-75
2022/06/12 11:59:05;;;;;;;4.70;2.25;;;;;;;;;;5074999;28;20040;-75
2022/06/12 12:01:35;;;;;;;5.38;2.00;;;;;;;;;;5075488;28;20552;-74
2022/06/12 12:04:20;;;;;;;3.20;2.28;;;;;;;;;;5070359;28;20041;-75
2022/06/12 12:06:52;;;;;;;3.75;2.00;;;;;;;;;;5074551;28;20037;-75
2022/06/12 12:09:36;;;;;;;4.30;2.70;;;;;;;;;;5074730;28;20099;-76
2022/06/12 12:12:09;;;;;;;2.55;1.98;;;;;;;;;;5074613;28;20036;-75
2022/06/12 12:14:37;;;;;;;3.03;1.80;;;;;;;;;;5069643;28;20036;-75
2022/06/12 12:17:07;;;;;;;5.60;2.38;;;;;;;;;;5072873;28;20486;-75
2022/06/12 12:19:39;;;;;;;2.55;2.13;;;;;;;;;;5074772;28;20090;-75
2022/06/12 12:22:07;;;;;;;3.08;2.10;;;;;;;;;;5074554;28;20118;-75
2022/06/12 12:24:42;;;;;;;4.07;2.33;;;;;;;;;;5074956;28;20131;-75
2022/06/12 12:27:18;;;;;;;5.82;2.60;;;;;;;;;;5054844;28;20049;-75
2022/06/12 12:29:45;;;;;;;5.28;2.80;;;;;;;;;;5056473;28;20071;-75
2022/06/12 12:32:11;;;;;;;2.72;2.33;;;;;;;;;;5065849;28;20033;-75
2022/06/12 12:34:39;;;;;;;4.65;2.80;;;;;;;;;;5054423;28;20045;-76
2022/06/12 12:42:43;;;;;;;5.88;2.53;;;;;;;;;;5057709;28;20106;-75
2022/06/12 12:45:09;;;;;;;5.55;2.78;;;;;;;;;;5059341;28;20526;-75
2022/06/12 12:47:36;;;;;;;6.70;3.30;;;;;;;;;;5053315;28;20040;-75
2022/06/12 12:50:11;;;;;;;4.65;2.72;;;;;;;;;;5060498;28;20096;-75
2022/06/12 12:52:57;;;;;;;5.15;2.80;;;;;;;;;;5054301;28;20052;-75
2022/06/12 12:55:26;;;;;;;3.95;2.95;;;;;;;;;;5059371;28;20040;-75
2022/06/12 12:57:53;;;;;;;3.50;2.58;;;;;;;;;;5060399;28;20399;-74
2022/06/12 13:00:19;;;;;;;4.95;2.47;;;;;;;;;;5051833;28;20084;-74
2022/06/12 13:03:03;;;;;;;3.22;2.58;;;;;;;;;;5049082;28;20047;-73
2022/06/12 13:05:53;;;;;;;3.63;2.80;;;;;;;;;;5072548;28;20041;-73
2022/06/12 13:08:19;;;;;;;;;;;;;;;;;;5050999;28;20049;-73
2022/06/12 13:11:02;;;;;;;4.88;2.85;;;;;;;;;;5063823;28;19909;-73
2022/06/12 13:13:41;;;;;;;5.95;3.03;;;;;;;;;;5059163;28;20498;-73
2022/06/12 13:16:15;;;;;;;5.72;3.17;;;;;;;;;;5054182;28;20162;-73
2022/06/12 13:18:41;;;;;;;5.70;2.78;;;;;;;;;;5045892;28;20114;-72
2022/06/12 13:21:12;;;;;;;3.85;2.92;;;;;;;;;;5046364;28;20057;-73
2022/06/12 13:23:38;;;;;;;4.43;2.60;;;;;;;;;;5051601;28;20040;-73
2022/06/12 13:26:09;;;;;;;4.28;2.90;;;;;;;;;;5060544;28;20049;-74
2022/06/12 13:28:35;;;;;;;;;;;;;;;;;;5065388;28;20040;-74
2022/06/12 13:31:02;;;;;;;3.45;2.70;;;;;;;;;;5075622;28;19920;-75
2022/06/12 13:33:30;;;;;;;5.75;2.92;;;;;;;;;;5076992;28;20040;-73
2022/06/12 13:35:58;;;;;;;4.70;2.70;;;;;;;;;;5074921;28;20028;-74
2022/06/12 13:38:24;;;;;;;5.30;2.88;;;;;;;;;;5061135;28;20068;-74
2022/06/12 13:40:53;;;;;;;5.68;2.85;;;;;;;;;;5058791;28;20051;-74
2022/06/12 13:43:28;;;;;;;5.03;2.75;;;;;;;;;;5043057;28;20049;-74
2022/06/12 13:45:55;;;;;;;4.57;2.90;;;;;;;;;;5055560;28;20072;-74
2022/06/12 13:48:29;;;;;;;3.40;2.85;;;;;;;;;;5055176;28;20400;-75
2022/06/12 13:51:18;;;;;;;3.70;2.60;;;;;;;;;;5072679;28;20052;-75
2022/06/12 13:53:46;;;;;;;3.20;2.30;;;;;;;;;;5048471;28;20040;-75
2022/06/12 13:56:15;;;;;;;4.43;2.45;;;;;;;;;;5078299;28;20478;-75
2022/06/12 13:58:42;;;;;;;5.85;2.78;;;;;;;;;;5076420;28;20043;-76
2022/06/12 14:01:20;;;;;;;3.40;2.53;;;;;;;;;;5055911;28;20052;-75
2022/06/12 14:03:49;;;;;;;4.80;2.53;;;;;;;;;;5064238;28;20371;-75
2022/06/12 14:06:17;;;;;;;3.08;2.10;;;;;;;;;;5057813;28;20135;-75
2022/06/12 14:08:44;;;;;;;3.92;2.38;;;;;;;;;;5066279;28;20499;-74
2022/06/12 14:11:24;;;;;;;2.95;2.28;;;;;;;;;;5064358;28;20033;-74
2022/06/12 14:13:50;;;;;;;;;;;;;;;;;;5056810;28;20114;-74
2022/06/12 14:16:18;;;;;;;5.85;2.67;;;;;;;;;;5065680;28;20271;-74
2022/06/12 14:19:01;;;;;;;2.40;2.20;;;;;;;;;;5069718;28;20658;-74
2022/06/12 14:21:30;;;;;;;5.68;2.65;;;;;;;;;;5057253;28;20048;-73
2022/06/12 14:23:58;;;;;;;3.03;2.67;;;;;;;;;;5057672;28;20045;-74
2022/06/12 14:26:26;;;;;;;3.90;2.40;;;;;;;;;;5060308;28;20116;-73
2022/06/12 14:28:53;;;;;;;5.18;2.63;;;;;;;;;;5058340;28;20057;-75
2022/06/12 14:31:19;;;;;;;5.20;2.65;;;;;;;;;;5059149;28;20036;-75
2022/06/12 14:34:02;;;;;;;3.80;2.67;;;;;;;;;;5068921;28;20060;-75
2022/06/12 14:36:30;;;;;;;2.53;1.98;;;;;;;;;;5076031;28;20074;-73
2022/06/12 14:38:57;;;;;;;5.25;2.40;;;;;;;;;;5075004;28;20487;-75
2022/06/12 14:41:25;;;;;;;5.43;2.67;;;;;;;;;;5076650;28;20131;-75
2022/06/12 14:43:52;;;;;;;4.75;2.65;;;;;;;;;;5082880;28;20058;-75
2022/06/12 14:46:19;;;;;;;3.15;2.47;;;;;;;;;;5080053;28;20502;-75
2022/06/12 14:48:46;;;;;;;4.65;2.60;;;;;;;;;;5076778;28;20037;-75
2022/06/12 14:51:12;;;;;;;3.97;2.40;;;;;;;;;;5076209;28;20036;-75
2022/06/12 14:53:39;;;;;;;5.50;2.60;;;;;;;;;;5075982;28;20043;-75
2022/06/12 14:56:12;;;;;;;5.55;2.53;;;;;;;;;;5076762;28;20045;-75
2022/06/12 14:58:39;;;;;;;4.90;2.50;;;;;;;;;;5074509;28;20106;-75
2022/06/12 15:01:17;;;;;;;5.63;2.40;;;;;;;;;;5076194;28;20079;-75
2022/06/12 15:03:44;;;;;;;6.18;2.47;;;;;;;;;;5075290;28;20129;-75
2022/06/12 15:06:11;;;;;;;3.67;2.40;;;;;;;;;;5063521;28;20056;-76
2022/06/12 15:08:37;;;;;;;2.92;2.28;;;;;;;;;;5060394;28;20032;-74
2022/06/12 15:11:13;;;;;;;5.43;2.33;;;;;;;;;;5073919;28;20143;-74
2022/06/12 15:13:39;;;;;;;2.83;2.20;;;;;;;;;;5052924;28;20083;-75
2022/06/12 15:16:06;;;;;;;7.05;3.03;;;;;;;;;;5053790;28;20029;-74
2022/06/12 15:18:32;;;;;;;5.25;2.50;;;;;;;;;;5066737;28;20041;-73
2022/06/12 15:20:58;;;;;;;3.05;2.72;;;;;;;;;;5055610;28;20491;-74
2022/06/12 15:23:25;;;;;;;3.30;2.55;;;;;;;;;;5038002;28;20390;-74